createdAt,value
2022-12-09T00:01:22.542Z,99904.11
2022-12-09T00:03:50.910Z,99909.88
2022-12-09T00:06:23.284Z,99913.63
2022-12-09T00:08:52.473Z,99927.92
2022-12-09T00:11:22.082Z,99929.36
2022-12-09T00:13:55.911Z,99936.56
2022-12-09T00:16:25.667Z,99931.69
2022-12-09T00:18:53.704Z,99935.36
2022-12-09T00:21:25.954Z,99937.13
2022-12-09T00:23:55.731Z,99927.23
2022-12-09T00:26:25.952Z,99922.67
2022-12-09T00:28:56.114Z,99919.01
2022-12-09T00:31:30.413Z,99911.91
2022-12-09T00:34:02.499Z,99901.04
2022-12-09T00:36:31.734Z,99888.95
2022-12-09T00:39:00.488Z,99877.70
2022-12-09T00:41:30.035Z,99866.29
2022-12-09T00:43:59.087Z,99867.65
2022-12-09T00:46:27.712Z,99857.35
2022-12-09T00:48:56.406Z,99857.10
2022-12-09T00:51:26.031Z,99851.34
2022-12-09T00:53:54.692Z,99843.38
2022-12-09T00:56:28.502Z,99837.46
2022-12-09T00:58:58.749Z,99834.36
2022-12-09T01:01:28.413Z,99831.63
2022-12-09T01:03:57.393Z,99832.99
2022-12-09T01:06:26.977Z,99844.02
2022-12-09T01:08:55.519Z,99857.20
2022-12-09T01:11:28.986Z,99862.94
2022-12-09T01:14:02.701Z,99859.90
2022-12-09T01:16:33.706Z,99851.36
2022-12-09T01:19:04.977Z,99843.84
2022-12-09T01:21:35.027Z,99833.38
2022-12-09T01:24:09.241Z,99836.08
2022-12-09T01:26:38.732Z,99841.45
2022-12-09T01:29:09.795Z,99834.34
2022-12-09T01:31:38.262Z,99834.99
2022-12-09T01:34:06.534Z,99830.29
2022-12-09T01:36:34.896Z,99831.95
2022-12-09T01:39:03.428Z,99818.38
2022-12-09T01:41:31.664Z,99809.02
2022-12-09T01:44:31.899Z,99813.88
2022-12-09T01:47:02.604Z,99818.20
2022-12-09T01:49:42.679Z,99820.85
2022-12-09T01:52:17.457Z,99826.11
2022-12-09T01:54:47.243Z,99828.36
2022-12-09T01:57:16.457Z,99833.48
2022-12-09T01:59:46.623Z,99841.79
2022-12-09T02:02:17.798Z,99841.63
2022-12-09T02:04:48.783Z,99835.79
2022-12-09T02:07:18.658Z,99837.15
2022-12-09T02:09:47.240Z,99829.95
2022-12-09T02:12:23.108Z,99830.83
2022-12-09T02:15:03.387Z,99838.64
2022-12-09T02:17:42.290Z,99843.94
2022-12-09T02:20:33.487Z,99836.98
2022-12-09T02:23:10.596Z,99828.64
2022-12-09T02:25:46.465Z,99825.77
2022-12-09T02:28:23.839Z,99826.96
2022-12-09T02:31:04.424Z,99819.20
2022-12-09T02:34:03.785Z,99819.22
2022-12-09T02:36:40.426Z,99814.10
2022-12-09T02:39:11.038Z,99811.73
2022-12-09T02:41:44.133Z,99802.02
2022-12-09T02:44:17.190Z,99798.33
2022-12-09T02:46:46.813Z,99799.21
2022-12-09T02:49:16.608Z,99809.20
2022-12-09T02:51:45.751Z,99813.43
2022-12-09T02:54:17.725Z,99824.45
2022-12-09T02:56:54.147Z,99825.15
2022-12-09T02:59:22.437Z,99820.77
2022-12-09T03:02:21.104Z,99824.13
2022-12-09T03:05:10.225Z,99829.73
2022-12-09T03:08:03.416Z,99836.66
2022-12-09T03:10:54.149Z,99829.31
2022-12-09T03:13:37.734Z,99822.77
2022-12-09T03:16:27.165Z,99825.25
2022-12-09T03:19:01.820Z,99820.05
2022-12-09T03:21:32.904Z,99803.69
2022-12-09T03:24:02.650Z,99805.45
2022-12-09T03:26:33.222Z,99802.48
2022-12-09T03:29:06.006Z,99802.25
2022-12-09T03:31:36.937Z,99793.70
2022-12-09T03:34:07.949Z,99793.79
2022-12-09T03:36:40.945Z,99788.92
2022-12-09T03:39:19.285Z,99792.66
2022-12-09T03:41:58.418Z,99802.59
2022-12-09T03:44:31.281Z,99806.80
2022-12-09T03:46:59.665Z,99806.96
2022-12-09T03:49:28.367Z,99800.10
2022-12-09T03:52:28.343Z,99795.30
2022-12-09T03:55:07.025Z,99792.21
2022-12-09T03:57:39.893Z,99799.15
2022-12-09T04:00:09.482Z,99801.45
2022-12-09T04:02:38.539Z,99804.96
2022-12-09T04:05:07.779Z,99804.89
2022-12-09T04:07:36.109Z,99809.36
2022-12-09T04:10:04.995Z,99808.95
2022-12-09T04:12:33.911Z,99811.27
2022-12-09T04:15:02.575Z,99815.51
2022-12-09T04:17:30.879Z,99822.05
2022-12-09T04:19:59.947Z,99825.23
2022-12-09T04:22:28.108Z,99825.93
2022-12-09T04:24:56.586Z,99826.46
2022-12-09T04:27:24.848Z,99826.24
2022-12-09T04:29:53.223Z,99827.52
2022-12-09T04:32:22.501Z,99819.71
2022-12-09T04:34:51.327Z,99815.87
2022-12-09T04:37:19.648Z,99823.42
2022-12-09T04:39:47.932Z,99818.25
2022-12-09T04:42:16.378Z,99813.48
2022-12-09T04:44:44.454Z,99800.95
2022-12-09T04:47:12.921Z,99798.09
2022-12-09T04:49:40.955Z,99788.42
2022-12-09T04:52:09.260Z,99783.79
2022-12-09T04:54:37.362Z,99785.38
2022-12-09T04:57:05.395Z,99786.88
2022-12-09T04:59:33.700Z,99800.15
2022-12-09T05:02:02.277Z,99808.23
2022-12-09T05:04:30.661Z,99799.66
2022-12-09T05:06:59.462Z,99787.27
2022-12-09T05:09:27.857Z,99789.42
2022-12-09T05:11:59.332Z,99780.70
2022-12-09T05:14:27.548Z,99772.38
2022-12-09T05:16:56.286Z,99765.55
2022-12-09T05:19:25.206Z,99751.64
2022-12-09T05:21:53.673Z,99752.51
2022-12-09T05:24:21.908Z,99745.46
2022-12-09T05:26:51.913Z,99741.09
2022-12-09T05:29:23.029Z,99746.36
2022-12-09T05:31:52.530Z,99756.10
2022-12-09T05:34:21.153Z,99763.12
2022-12-09T05:36:49.705Z,99759.11
2022-12-09T05:39:18.233Z,99768.55
2022-12-09T05:41:46.631Z,99769.27
2022-12-09T05:44:15.318Z,99768.95
2022-12-09T05:46:43.564Z,99771.90
2022-12-09T05:49:12.148Z,99764.45
2022-12-09T05:51:40.852Z,99764.16
2022-12-09T05:54:09.164Z,99772.80
2022-12-09T05:56:39.481Z,99775.64
2022-12-09T05:59:11.454Z,99778.03
2022-12-09T06:01:39.789Z,99783.95
2022-12-09T06:04:08.240Z,99781.37
2022-12-09T06:06:36.997Z,99783.02
2022-12-09T06:09:05.873Z,99781.27
2022-12-09T06:11:34.212Z,99785.60
2022-12-09T06:14:02.831Z,99785.60
2022-12-09T06:16:31.394Z,99773.88
2022-12-09T06:18:59.992Z,99774.77
2022-12-09T06:21:28.538Z,99769.00
2022-12-09T06:23:57.464Z,99774.45
2022-12-09T06:26:28.252Z,99771.35
2022-12-09T06:28:57.760Z,99767.52
2022-12-09T06:31:27.623Z,99769.88
2022-12-09T06:33:58.335Z,99773.60
2022-12-09T06:36:29.616Z,99777.91
2022-12-09T06:39:04.497Z,99782.95
2022-12-09T06:41:38.680Z,99795.41
2022-12-09T06:44:07.533Z,99794.16
2022-12-09T06:46:36.101Z,99794.50
2022-12-09T06:49:04.879Z,99792.89
2022-12-09T06:51:33.409Z,99794.02
2022-12-09T06:54:02.441Z,99789.64
2022-12-09T06:56:31.230Z,99782.46
2022-12-09T06:58:59.929Z,99781.64
2022-12-09T07:01:28.630Z,99785.16
2022-12-09T07:03:57.428Z,99788.20
2022-12-09T07:06:32.840Z,99796.48
2022-12-09T07:09:05.496Z,99793.54
2022-12-09T07:11:35.048Z,99792.51
2022-12-09T07:14:04.441Z,99791.39
2022-12-09T07:16:33.092Z,99790.90
2022-12-09T07:19:03.408Z,99793.21
2022-12-09T07:21:33.235Z,99795.38
2022-12-09T07:24:03.728Z,99795.61
2022-12-09T07:26:33.717Z,99793.54
2022-12-09T07:29:03.826Z,99798.48
2022-12-09T07:31:33.658Z,99803.58
2022-12-09T07:34:03.952Z,99801.98
2022-12-09T07:36:34.532Z,99808.27
2022-12-09T07:39:06.551Z,99811.30
2022-12-09T07:41:35.311Z,99809.38
2022-12-09T07:44:04.907Z,99801.47
2022-12-09T07:46:34.109Z,99799.44
2022-12-09T07:49:06.356Z,99798.45
2022-12-09T07:51:34.992Z,99802.36
2022-12-09T07:54:04.121Z,99803.76
2022-12-09T07:56:32.268Z,99809.95
2022-12-09T07:59:00.829Z,99807.06
2022-12-09T08:01:30.194Z,99808.58
2022-12-09T08:03:59.322Z,99809.60
2022-12-09T08:06:29.668Z,99815.53
2022-12-09T08:09:04.085Z,99820.02
2022-12-09T08:11:34.176Z,99823.21
2022-12-09T08:14:11.070Z,99823.42
2022-12-09T08:16:42.598Z,99829.42
2022-12-09T08:19:12.212Z,99827.60
2022-12-09T08:21:40.760Z,99830.39
2022-12-09T08:24:11.991Z,99837.38
2022-12-09T08:26:42.213Z,99838.55
2022-12-09T08:29:13.295Z,99833.53
2022-12-09T08:31:43.710Z,99836.30
2022-12-09T08:34:13.177Z,99836.73
2022-12-09T08:36:42.687Z,99840.92
2022-12-09T08:39:13.200Z,99841.35
2022-12-09T08:41:43.834Z,99838.46
2022-12-09T08:44:16.192Z,99836.70
2022-12-09T08:46:48.522Z,99838.61
2022-12-09T08:49:19.436Z,99844.05
2022-12-09T08:51:50.196Z,99839.02
2022-12-09T08:54:19.829Z,99834.33
2022-12-09T08:56:50.202Z,99833.02
2022-12-09T08:59:19.491Z,99838.27
2022-12-09T09:01:48.654Z,99840.67
2022-12-09T09:04:19.375Z,99836.54
2022-12-09T09:06:50.418Z,99840.21
2022-12-09T09:09:21.354Z,99840.61
2022-12-09T09:11:50.245Z,99844.38
2022-12-09T09:14:18.406Z,99853.12
2022-12-09T09:16:47.259Z,99854.95
2022-12-09T09:19:20.409Z,99852.95
2022-12-09T09:21:49.859Z,99845.40
2022-12-09T09:24:20.592Z,99843.61
2022-12-09T09:26:50.489Z,99845.80
2022-12-09T09:29:22.043Z,99853.93
2022-12-09T09:31:51.943Z,99848.41
2022-12-09T09:34:21.712Z,99850.34
2022-12-09T09:36:50.503Z,99848.33
2022-12-09T09:39:20.170Z,99841.18
2022-12-09T09:41:48.261Z,99842.46
2022-12-09T09:44:34.797Z,99848.90
2022-12-09T09:47:12.467Z,99851.95
2022-12-09T09:49:47.021Z,99849.23
2022-12-09T09:52:21.834Z,99853.39
2022-12-09T09:54:51.361Z,99867.09
2022-12-09T09:57:25.641Z,99871.23
2022-12-09T10:00:22.658Z,99850.77
2022-12-09T10:03:02.848Z,99835.27
2022-12-09T10:05:36.523Z,99832.33
2022-12-09T10:08:37.583Z,99842.20
2022-12-09T10:11:21.435Z,99845.55
2022-12-09T10:14:20.379Z,99838.42
2022-12-09T10:17:18.546Z,99836.13
2022-12-09T10:19:50.524Z,99831.67
2022-12-09T10:22:29.105Z,99826.59
2022-12-09T10:25:03.469Z,99821.64
2022-12-09T10:27:45.969Z,99817.52
2022-12-09T10:30:17.651Z,99811.96
2022-12-09T10:32:46.851Z,99810.95
2022-12-09T10:35:25.751Z,99809.98
2022-12-09T10:37:57.109Z,99803.50
2022-12-09T10:40:36.271Z,99805.85
2022-12-09T10:43:24.783Z,99803.95
2022-12-09T10:48:47.966Z,99796.44
2022-12-09T10:51:29.036Z,99796.80
2022-12-09T10:54:22.468Z,99791.75
2022-12-09T10:57:27.630Z,99784.30
2022-12-09T11:00:03.295Z,99776.75
2022-12-09T11:02:33.876Z,99769.98
2022-12-09T11:05:24.093Z,99765.29
2022-12-09T11:07:54.658Z,99767.92
2022-12-09T11:10:26.611Z,99776.20
2022-12-09T11:13:04.585Z,99791.19
2022-12-09T11:15:46.169Z,99784.05
2022-12-09T11:18:24.670Z,99783.45
2022-12-09T11:21:03.125Z,99785.57
2022-12-09T11:23:32.641Z,99793.66
2022-12-09T11:26:07.561Z,99789.33
2022-12-09T11:28:39.566Z,99788.20
2022-12-09T11:31:29.326Z,99785.25
2022-12-09T11:34:01.403Z,99782.53
2022-12-09T11:36:49.970Z,99774.88
2022-12-09T11:39:20.295Z,99764.79
2022-12-09T11:41:53.154Z,99762.90
2022-12-09T11:44:31.809Z,99766.80
2022-12-09T11:47:09.796Z,99777.13
2022-12-09T11:49:51.326Z,99775.82
2022-12-09T11:52:19.322Z,99773.88
2022-12-09T11:55:11.613Z,99778.67
2022-12-09T11:57:45.811Z,99781.74
2022-12-09T12:00:19.424Z,99773.29
2022-12-09T12:03:04.541Z,99764.79
2022-12-09T12:05:48.436Z,99760.55
2022-12-09T12:08:55.829Z,99750.75
2022-12-09T12:11:31.770Z,99736.92
2022-12-09T12:14:19.387Z,99729.49
2022-12-09T12:16:50.533Z,99715.96
2022-12-09T12:19:43.487Z,99694.80
2022-12-09T12:22:17.622Z,99686.42
2022-12-09T12:25:18.224Z,99690.19
2022-12-09T12:28:14.621Z,99680.81
2022-12-09T12:30:54.940Z,99679.73
2022-12-09T12:36:27.174Z,99692.38
2022-12-09T12:38:58.272Z,99699.53
2022-12-09T12:41:43.374Z,99700.33
2022-12-09T12:44:49.059Z,99695.38
2022-12-09T12:47:43.539Z,99688.77
2022-12-09T12:50:20.504Z,99669.60
2022-12-09T12:53:01.027Z,99667.48
2022-12-09T12:55:54.022Z,99684.45
2022-12-09T12:58:31.124Z,99684.77
2022-12-09T13:01:02.264Z,99674.16
2022-12-09T13:04:06.225Z,99679.70
2022-12-09T13:06:50.628Z,99673.91
2022-12-09T13:09:25.879Z,99657.63
2022-12-09T13:12:21.450Z,99645.73
2022-12-09T13:14:53.995Z,99626.14
2022-12-09T13:17:29.504Z,99621.10
2022-12-09T13:20:01.402Z,99634.77
2022-12-09T13:22:52.594Z,99640.96
2022-12-09T13:25:35.540Z,99618.67
2022-12-09T13:28:51.904Z,99616.17
2022-12-09T13:31:28.512Z,99615.09
2022-12-09T13:34:02.877Z,99618.47
2022-12-09T13:36:47.559Z,99611.16
2022-12-09T13:39:40.787Z,99599.77
2022-12-09T13:42:24.250Z,99607.38
2022-12-09T13:45:05.665Z,99616.95
2022-12-09T13:47:36.872Z,99621.02
2022-12-09T13:50:23.477Z,99614.45
2022-12-09T13:52:56.256Z,99609.55
2022-12-09T13:55:33.472Z,99601.04
2022-12-09T13:58:20.338Z,99590.56
2022-12-09T14:01:11.890Z,99580.13
2022-12-09T14:03:49.714Z,99575.48
2022-12-09T14:06:33.017Z,99557.29
2022-12-09T14:09:06.084Z,99561.81
2022-12-09T14:11:43.137Z,99561.80
2022-12-09T14:14:23.789Z,99550.97
2022-12-09T14:17:25.544Z,99566.84
2022-12-09T14:20:00.608Z,99564.12
2022-12-09T14:22:33.089Z,99553.88
2022-12-09T14:25:27.105Z,99554.70
2022-12-09T14:28:26.240Z,99548.64
2022-12-09T14:30:59.731Z,99552.23
2022-12-09T14:33:34.785Z,99558.72
2022-12-09T14:36:14.873Z,99555.31
2022-12-09T14:39:16.097Z,99555.59
2022-12-09T14:41:52.224Z,99550.38
2022-12-09T14:44:45.150Z,99541.20
2022-12-09T14:47:22.717Z,99547.16
2022-12-09T14:49:52.951Z,99548.70
2022-12-09T14:52:30.706Z,99554.34
2022-12-09T14:55:02.655Z,99558.34
2022-12-09T14:57:37.683Z,99548.05
2022-12-09T15:00:07.698Z,99539.73
2022-12-09T15:02:35.990Z,99532.92
2022-12-09T15:05:16.902Z,99537.28
2022-12-09T15:07:45.827Z,99540.69
2022-12-09T15:10:34.934Z,99537.70
2022-12-09T15:13:03.781Z,99545.73
2022-12-09T15:15:35.710Z,99544.29
2022-12-09T15:18:16.374Z,99543.27
2022-12-09T15:20:54.313Z,99545.92
2022-12-09T15:23:23.831Z,99546.46
2022-12-09T15:25:54.510Z,99544.75
2022-12-09T15:28:26.752Z,99552.08
2022-12-09T15:31:00.824Z,99550.45
2022-12-09T15:33:32.788Z,99540.52
2022-12-09T15:36:04.451Z,99527.71
2022-12-09T15:38:40.705Z,99527.05
2022-12-09T15:41:10.274Z,99526.11
2022-12-09T15:43:40.914Z,99522.49
2022-12-09T15:46:10.975Z,99520.14
2022-12-09T15:48:45.764Z,99520.59
2022-12-09T15:51:18.926Z,99522.79
2022-12-09T15:53:57.875Z,99528.09
2022-12-09T15:56:52.085Z,99519.98
2022-12-09T15:59:22.522Z,99519.30
2022-12-09T16:01:56.850Z,99517.69
2022-12-09T16:04:29.793Z,99518.38
2022-12-09T16:07:08.855Z,99522.14
2022-12-09T16:09:36.999Z,99519.48
2022-12-09T16:12:05.783Z,99513.03
2022-12-09T16:14:44.454Z,99509.59
2022-12-09T16:17:36.810Z,99510.55
2022-12-09T16:20:32.912Z,99508.08
2022-12-09T16:23:02.629Z,99492.66
2022-12-09T16:25:39.128Z,99496.04
2022-12-09T16:28:07.341Z,99490.21
2022-12-09T16:30:45.455Z,99501.34
2022-12-09T16:33:39.258Z,99504.70
2022-12-09T16:36:07.792Z,99501.34
2022-12-09T16:38:37.528Z,99495.23
2022-12-09T16:41:09.225Z,99496.21
2022-12-09T16:43:53.246Z,99503.60
2022-12-09T16:46:40.791Z,99517.73
2022-12-09T16:49:09.009Z,99523.02
2022-12-09T16:51:38.645Z,99530.90
2022-12-09T16:54:19.628Z,99532.39
2022-12-09T16:56:48.638Z,99546.34
2022-12-09T16:59:16.954Z,99549.23
2022-12-09T17:01:45.233Z,99548.73
2022-12-09T17:04:13.471Z,99552.18
2022-12-09T17:06:41.488Z,99553.46
2022-12-09T17:09:10.705Z,99558.66
2022-12-09T17:11:40.995Z,99562.17
2022-12-09T17:14:12.747Z,99561.04
2022-12-09T17:16:40.853Z,99556.77
2022-12-09T17:19:08.993Z,99556.66
2022-12-09T17:21:37.013Z,99551.82
2022-12-09T17:24:05.660Z,99557.34
2022-12-09T17:26:33.648Z,99560.83
2022-12-09T17:29:02.240Z,99560.35
2022-12-09T17:31:30.409Z,99563.11
2022-12-09T17:33:58.703Z,99567.75
2022-12-09T17:36:26.836Z,99569.13
2022-12-09T17:38:55.124Z,99573.52
2022-12-09T17:41:23.148Z,99579.37
2022-12-09T17:43:51.868Z,99580.41
2022-12-09T17:46:19.948Z,99574.08
2022-12-09T17:48:48.001Z,99578.20
2022-12-09T17:51:16.704Z,99580.55
2022-12-09T17:53:46.640Z,99585.41
2022-12-09T17:56:18.514Z,99593.48
2022-12-09T17:58:47.310Z,99594.66
2022-12-09T18:01:22.053Z,99590.20
2022-12-09T18:04:01.366Z,99598.31
2022-12-09T18:06:32.286Z,99596.59
2022-12-09T18:09:01.697Z,99593.45
2022-12-09T18:11:29.777Z,99585.90
2022-12-09T18:13:58.258Z,99579.67
2022-12-09T18:16:26.438Z,99577.73
2022-12-09T18:18:55.004Z,99566.77
2022-12-09T18:21:23.230Z,99555.98
2022-12-09T18:23:51.319Z,99553.40
2022-12-09T18:26:19.930Z,99550.09
2022-12-09T18:28:48.382Z,99549.48
2022-12-09T18:31:18.177Z,99552.98
2022-12-09T18:33:46.959Z,99550.97
2022-12-09T18:36:20.246Z,99545.99
2022-12-09T18:38:49.136Z,99542.09
2022-12-09T18:41:23.426Z,99547.45
2022-12-09T18:43:54.367Z,99562.91
2022-12-09T18:46:26.533Z,99563.31
2022-12-09T18:49:01.994Z,99549.05
2022-12-09T18:51:31.078Z,99524.80
2022-12-09T18:54:01.446Z,99515.84
2022-12-09T18:56:30.459Z,99534.91
2022-12-09T18:59:07.999Z,99580.66
2022-12-09T19:01:42.591Z,99599.05
2022-12-09T19:04:14.606Z,99590.94
2022-12-09T19:06:45.306Z,99582.73
2022-12-09T19:09:20.711Z,99566.50
2022-12-09T19:11:50.275Z,99558.99
2022-12-09T19:14:21.003Z,99553.55
2022-12-09T19:16:50.363Z,99545.34
2022-12-09T19:19:22.902Z,99547.98
2022-12-09T19:21:55.399Z,99538.08
2022-12-09T19:24:30.498Z,99534.78
2022-12-09T19:27:02.340Z,99532.66
2022-12-09T19:29:30.448Z,99551.77
2022-12-09T19:31:58.509Z,99562.66
2022-12-09T19:34:29.585Z,99565.73
2022-12-09T19:37:00.490Z,99558.09
2022-12-09T19:39:31.063Z,99567.77
2022-12-09T19:41:59.542Z,99566.24
2022-12-09T19:44:59.413Z,99567.70
2022-12-09T19:47:17.072Z,99566.12
2022-12-09T19:49:45.064Z,99575.29
2022-12-09T19:52:13.149Z,99579.03
2022-12-09T19:54:41.613Z,99584.63
2022-12-09T19:57:10.214Z,99581.20
2022-12-09T19:59:38.239Z,99585.19
2022-12-09T20:02:07.364Z,99578.16
2022-12-09T20:04:51.525Z,99574.37
2022-12-09T20:07:20.949Z,99570.93
2022-12-09T20:09:49.178Z,99575.81
2022-12-09T20:12:17.203Z,99584.93
2022-12-09T20:14:46.631Z,99596.30
2022-12-09T20:17:14.699Z,99597.56
2022-12-09T20:19:42.672Z,99600.39
2022-12-09T20:22:11.079Z,99601.34
2022-12-09T20:24:39.253Z,99602.06
2022-12-09T20:27:07.310Z,99613.04
2022-12-09T20:29:38.346Z,99613.25
2022-12-09T20:32:08.619Z,99615.97
2022-12-09T20:34:37.404Z,99617.13
2022-12-09T20:37:05.614Z,99615.42
2022-12-09T20:39:33.775Z,99618.26
2022-12-09T20:42:02.069Z,99623.98
2022-12-09T20:44:30.131Z,99631.42
2022-12-09T20:46:58.360Z,99633.80
2022-12-09T20:49:27.251Z,99637.16
2022-12-09T20:51:55.703Z,99636.69
2022-12-09T20:54:23.803Z,99639.66
2022-12-09T20:56:52.631Z,99633.83
2022-12-09T20:59:20.863Z,99631.89
2022-12-09T21:01:48.977Z,99633.76
2022-12-09T21:04:17.444Z,99637.33
2022-12-09T21:06:46.216Z,99643.17
2022-12-09T21:09:19.997Z,99639.17
2022-12-09T21:11:49.654Z,99633.52
2022-12-09T21:14:18.044Z,99639.34
2022-12-09T21:16:47.941Z,99639.44
2022-12-09T21:19:17.673Z,99636.84
2022-12-09T21:21:46.519Z,99638.71
2022-12-09T21:24:16.284Z,99641.23
2022-12-09T21:26:44.980Z,99641.68
2022-12-09T21:29:14.183Z,99642.42
2022-12-09T21:31:43.104Z,99641.94
2022-12-09T21:34:11.414Z,99647.09
2022-12-09T21:36:42.707Z,99649.73
2022-12-09T21:39:14.296Z,99653.23
2022-12-09T21:41:42.924Z,99653.89
2022-12-09T21:44:17.057Z,99656.72
2022-12-09T21:46:46.128Z,99656.20
2022-12-09T21:49:14.541Z,99659.08
2022-12-09T21:51:43.362Z,99664.35
2022-12-09T21:54:12.024Z,99665.92
2022-12-09T21:56:40.352Z,99668.11
2022-12-09T21:59:10.640Z,99670.41
2022-12-09T22:01:41.424Z,99679.02
2022-12-09T22:04:13.849Z,99680.03
2022-12-09T22:06:48.138Z,99682.79
2022-12-09T22:09:18.260Z,99687.95
2022-12-09T22:11:46.267Z,99689.89
2022-12-09T22:14:14.290Z,99698.08
2022-12-09T22:16:44.549Z,99710.08
2022-12-09T22:19:18.436Z,99711.96
2022-12-09T22:21:47.304Z,99710.73
2022-12-09T22:24:15.773Z,99709.98
2022-12-09T22:26:44.259Z,99699.45
2022-12-09T22:29:14.633Z,99695.11
2022-12-09T22:31:43.972Z,99693.36
2022-12-09T22:34:17.890Z,99692.63
2022-12-09T22:36:47.849Z,99696.42
2022-12-09T22:39:18.751Z,99704.36
2022-12-09T22:41:46.854Z,99708.02
2022-12-09T22:44:17.718Z,99704.02
2022-12-09T22:46:46.279Z,99703.52
2022-12-09T22:49:15.733Z,99700.98
2022-12-09T22:51:44.880Z,99701.39
2022-12-09T22:54:14.610Z,99695.91
2022-12-09T22:56:43.887Z,99699.00
2022-12-09T22:59:14.252Z,99707.00
2022-12-09T23:01:45.044Z,99704.76
2022-12-09T23:04:16.118Z,99704.60
2022-12-09T23:06:44.664Z,99709.95
2022-12-09T23:09:21.680Z,99712.13
2022-12-09T23:11:51.707Z,99715.16
2022-12-09T23:14:20.047Z,99716.98
2022-12-09T23:16:48.176Z,99722.95
2022-12-09T23:19:16.293Z,99724.77
2022-12-09T23:21:44.281Z,99719.77
2022-12-09T23:24:21.005Z,99717.63
2022-12-09T23:26:55.869Z,99725.64
2022-12-09T23:29:23.989Z,99726.52
2022-12-09T23:31:52.253Z,99719.52
2022-12-09T23:34:22.284Z,99722.07
2022-12-09T23:36:50.785Z,99721.38
2022-12-09T23:39:19.607Z,99727.45
2022-12-09T23:41:49.060Z,99722.78
2022-12-09T23:44:19.160Z,99724.45
2022-12-09T23:46:47.249Z,99718.00
2022-12-09T23:49:15.425Z,99715.65
2022-12-09T23:51:44.179Z,99719.70
2022-12-09T23:54:14.806Z,99725.23
2022-12-09T23:56:44.738Z,99719.63
2022-12-09T23:59:14.636Z,99719.54
